createdAt,value
2019-03-02T00:02:41.303Z,6.90
2019-03-02T00:05:28.706Z,6.80
2019-03-02T00:08:16.295Z,6.90
2019-03-02T00:11:04.091Z,6.80
2019-03-02T00:13:51.462Z,6.90
2019-03-02T00:16:43.013Z,6.80
2019-03-02T00:19:28.656Z,6.80
2019-03-02T00:22:16.511Z,6.70
2019-03-02T00:25:03.980Z,6.60
2019-03-02T00:27:54.180Z,6.60
2019-03-02T00:30:40.426Z,6.60
2019-03-02T00:33:27.892Z,6.60
2019-03-02T00:36:15.958Z,6.70
2019-03-02T00:39:05.802Z,6.70
2019-03-02T00:41:53.991Z,6.60
2019-03-02T00:44:41.724Z,6.60
2019-03-02T00:47:31.753Z,6.70
2019-03-02T00:50:18.153Z,6.70
2019-03-02T00:53:05.859Z,6.70
2019-03-02T00:55:53.512Z,6.60
2019-03-02T00:58:40.734Z,6.60
2019-03-02T01:01:28.719Z,6.50
2019-03-02T01:04:16.825Z,6.40
2019-03-02T01:07:05.378Z,6.50
2019-03-02T01:09:52.930Z,6.50
2019-03-02T01:12:43.363Z,6.50
2019-03-02T01:15:29.480Z,6.50
2019-03-02T01:18:16.967Z,6.50
2019-03-02T01:21:05.110Z,6.50
2019-03-02T01:23:52.756Z,6.40
2019-03-02T01:26:40.338Z,6.40
2019-03-02T01:29:28.105Z,6.40
2019-03-02T01:32:16.188Z,6.50
2019-03-02T01:35:05.539Z,6.50
2019-03-02T01:37:53.476Z,6.50
2019-03-02T01:40:41.649Z,6.50
2019-03-02T01:43:29.580Z,6.50
2019-03-02T01:46:17.161Z,6.60
2019-03-02T01:49:04.986Z,6.50
2019-03-02T01:51:54.665Z,6.50
2019-03-02T01:54:41.427Z,6.50
2019-03-02T01:57:28.477Z,6.50
2019-03-02T02:00:23.208Z,6.50
2019-03-02T02:03:12.105Z,6.50
2019-03-02T02:05:59.637Z,6.50
2019-03-02T02:08:47.799Z,6.50
2019-03-02T02:11:35.345Z,6.50
2019-03-02T02:14:23.106Z,6.50
2019-03-02T02:17:10.782Z,6.60
2019-03-02T02:19:58.178Z,6.60
2019-03-02T02:22:46.393Z,6.60
2019-03-02T02:25:35.657Z,6.60
2019-03-02T02:28:23.306Z,6.60
2019-03-02T02:31:10.732Z,6.60
2019-03-02T02:33:58.157Z,6.60
2019-03-02T02:36:45.482Z,6.60
2019-03-02T02:39:33.474Z,6.70
2019-03-02T02:42:21.781Z,6.70
2019-03-02T02:45:11.022Z,6.70
2019-03-02T02:47:58.658Z,6.70
2019-03-02T02:50:45.881Z,6.60
2019-03-02T02:53:33.317Z,6.60
2019-03-02T02:56:21.444Z,6.60
2019-03-02T02:59:09.038Z,6.60
2019-03-02T03:01:56.186Z,6.60
2019-03-02T03:04:43.934Z,6.50
2019-03-02T03:07:37.706Z,6.60
2019-03-02T03:10:53.446Z,6.50
2019-03-02T03:13:42.123Z,6.60
2019-03-02T03:16:29.631Z,6.50
2019-03-02T03:19:17.400Z,6.50
2019-03-02T03:22:07.559Z,6.50
2019-03-02T03:24:54.792Z,6.50
2019-03-02T03:27:47.627Z,6.50
2019-03-02T03:30:38.736Z,6.50
2019-03-02T03:33:20.577Z,6.50
2019-03-02T03:36:08.335Z,6.50
2019-03-02T03:38:56.304Z,6.50
2019-03-02T03:41:44.949Z,6.50
2019-03-02T03:44:32.496Z,6.50
2019-03-02T03:47:20.150Z,6.50
2019-03-02T03:50:13.390Z,6.50
2019-03-02T03:52:58.467Z,6.50
2019-03-02T03:55:46.079Z,6.50
2019-03-02T03:58:35.106Z,6.50
2019-03-02T04:01:22.794Z,6.50
2019-03-02T04:04:10.136Z,6.50
2019-03-02T04:07:01.404Z,6.50
2019-03-02T04:09:48.281Z,6.50
2019-03-02T04:12:36.113Z,6.40
2019-03-02T04:15:23.810Z,6.50
2019-03-02T04:18:50.133Z,6.50
2019-03-02T04:21:38.860Z,6.50
2019-03-02T04:25:12.833Z,6.40
2019-03-02T04:28:34.032Z,6.50
2019-03-02T04:31:34.979Z,6.40
2019-03-02T04:38:37.018Z,6.40
2019-03-02T04:41:25.669Z,6.40
2019-03-02T04:44:13.527Z,6.40
2019-03-02T04:47:11.034Z,6.50
2019-03-02T04:50:01.709Z,6.40
2019-03-02T04:52:54.109Z,6.50
2019-03-02T04:55:51.299Z,6.50
2019-03-02T04:58:46.954Z,6.40
2019-03-02T05:01:38.945Z,6.50
2019-03-02T05:06:54.506Z,6.40
2019-03-02T05:09:42.350Z,6.40
2019-03-02T05:12:30.591Z,6.40
2019-03-02T05:15:20.962Z,6.40
2019-03-02T05:18:19.981Z,6.40
2019-03-02T05:21:07.798Z,6.40
2019-03-02T05:23:56.377Z,6.40
2019-03-02T05:26:45.158Z,6.30
2019-03-02T05:29:33.219Z,6.30
2019-03-02T05:32:26.505Z,6.40
2019-03-02T05:35:20.003Z,6.40
2019-03-02T05:38:11.747Z,6.40
2019-03-02T05:41:02.661Z,6.30
2019-03-02T05:43:59.469Z,6.40
2019-03-02T05:46:47.746Z,6.40
2019-03-02T05:49:36.381Z,6.40
2019-03-02T05:52:27.925Z,6.40
2019-03-02T05:55:18.132Z,6.40
2019-03-02T05:58:05.945Z,6.40
2019-03-02T06:00:56.463Z,6.40
2019-03-02T06:03:45.980Z,6.50
2019-03-02T06:06:54.166Z,6.50
2019-03-02T06:09:46.879Z,6.50
2019-03-02T06:12:32.472Z,6.50
2019-03-02T06:15:20.730Z,6.40
2019-03-02T06:18:09.683Z,6.50
2019-03-02T06:21:01.291Z,6.40
2019-03-02T06:23:52.114Z,6.40
2019-03-02T06:26:40.555Z,6.40
2019-03-02T06:29:29.484Z,6.40
2019-03-02T06:32:18.584Z,6.40
2019-03-02T06:35:08.741Z,6.40
2019-03-02T06:38:11.314Z,6.40
2019-03-02T06:41:00.730Z,6.40
2019-03-02T06:43:48.943Z,6.30
2019-03-02T06:46:37.620Z,6.40
2019-03-02T06:49:25.890Z,6.40
2019-03-02T06:52:19.176Z,6.40
2019-03-02T06:55:08.741Z,6.40
2019-03-02T06:58:32.290Z,6.30
2019-03-02T07:01:34.130Z,6.30
2019-03-02T07:07:57.395Z,6.40
2019-03-02T07:10:47.535Z,6.40
2019-03-02T07:13:35.327Z,6.40
2019-03-02T07:16:23.457Z,6.60
2019-03-02T07:19:42.746Z,6.70
2019-03-02T07:22:30.615Z,6.70
2019-03-02T07:25:18.608Z,6.70
2019-03-02T07:28:07.364Z,6.70
2019-03-02T07:30:54.976Z,6.70
2019-03-02T07:33:46.288Z,6.70
2019-03-02T07:37:09.197Z,6.70
2019-03-02T07:39:58.000Z,6.70
2019-03-02T07:42:45.648Z,6.80
2019-03-02T07:45:34.787Z,6.80
2019-03-02T07:48:24.167Z,6.80
2019-03-02T07:51:33.670Z,6.90
2019-03-02T07:54:24.662Z,7.00
2019-03-02T07:57:12.482Z,6.90
2019-03-02T08:00:02.083Z,6.90
2019-03-02T08:02:51.583Z,6.90
2019-03-02T08:05:40.255Z,6.90
2019-03-02T08:09:03.904Z,6.90
2019-03-02T08:11:52.133Z,7.00
2019-03-02T08:14:44.362Z,6.90
2019-03-02T08:21:04.684Z,7.00
2019-03-02T08:24:03.165Z,7.10
2019-03-02T08:26:51.011Z,7.00
2019-03-02T08:29:39.603Z,7.20
2019-03-02T08:32:36.481Z,7.20
2019-03-02T08:35:41.811Z,7.30
2019-03-02T08:38:42.292Z,7.40
2019-03-02T08:41:36.655Z,7.30
2019-03-02T08:48:07.815Z,7.20
2019-03-02T08:50:58.871Z,7.20
2019-03-02T08:54:04.354Z,7.20
2019-03-02T08:56:55.219Z,7.30
2019-03-02T08:59:43.049Z,7.30
2019-03-02T09:02:49.883Z,7.40
2019-03-02T09:05:45.130Z,7.50
2019-03-02T09:09:20.130Z,7.60
2019-03-02T09:12:12.153Z,7.60
2019-03-02T09:15:00.825Z,7.60
2019-03-02T09:17:54.129Z,7.70
2019-03-02T09:20:55.445Z,7.70
2019-03-02T09:23:55.569Z,7.80
2019-03-02T09:27:22.880Z,7.90
2019-03-02T09:34:40.357Z,8.00
2019-03-02T09:42:07.187Z,7.90
2019-03-02T09:49:11.711Z,8.10
2019-03-02T09:52:00.117Z,8.10
2019-03-02T09:54:48.005Z,8.20
2019-03-02T09:57:36.288Z,8.10
2019-03-02T10:00:25.951Z,8.10
2019-03-02T10:03:14.201Z,8.00
2019-03-02T10:06:05.826Z,8.00
2019-03-02T10:08:54.093Z,8.00
2019-03-02T10:11:42.033Z,8.00
2019-03-02T10:14:30.403Z,8.00
2019-03-02T10:17:18.158Z,8.10
2019-03-02T10:20:09.271Z,8.20
2019-03-02T10:22:57.013Z,8.40
2019-03-02T10:25:45.483Z,8.40
2019-03-02T10:28:34.046Z,8.40
2019-03-02T10:31:22.843Z,8.30
2019-03-02T10:34:18.984Z,8.10
2019-03-02T10:41:16.693Z,8.20
2019-03-02T10:44:23.925Z,8.30
2019-03-02T10:54:55.598Z,8.20
2019-03-02T10:58:02.011Z,8.50
2019-03-02T11:00:49.302Z,8.40
2019-03-02T11:03:41.558Z,8.30
2019-03-02T11:06:49.421Z,8.30
2019-03-02T11:10:00.663Z,8.30
2019-03-02T11:13:25.671Z,8.20
2019-03-02T11:16:32.293Z,8.20
2019-03-02T11:19:43.811Z,8.10
2019-03-02T11:22:39.859Z,8.00
2019-03-02T11:25:53.055Z,8.00
2019-03-02T11:29:05.474Z,8.20
2019-03-02T11:32:20.345Z,8.30
2019-03-02T11:35:29.684Z,8.40
2019-03-02T11:38:46.957Z,8.40
2019-03-02T11:42:02.950Z,8.60
2019-03-02T11:45:18.254Z,8.70
2019-03-02T11:48:13.687Z,8.90
2019-03-02T11:51:27.119Z,9.00
2019-03-02T11:54:31.782Z,9.00
2019-03-02T11:57:26.917Z,9.10
2019-03-02T12:00:37.762Z,9.30
2019-03-02T12:03:35.241Z,9.40
2019-03-02T12:06:57.622Z,9.60
2019-03-02T12:10:00.941Z,9.70
2019-03-02T12:13:05.655Z,9.80
2019-03-02T12:16:15.176Z,9.90
2019-03-02T12:19:09.460Z,9.90
2019-03-02T12:22:14.558Z,10.10
2019-03-02T12:25:19.784Z,10.70
2019-03-02T12:28:32.982Z,11.10
2019-03-02T12:31:39.599Z,11.40
2019-03-02T12:34:34.607Z,11.80
2019-03-02T12:37:35.410Z,12.20
2019-03-02T12:40:44.814Z,12.70
2019-03-02T12:43:49.821Z,12.90
2019-03-02T12:47:04.292Z,12.70
2019-03-02T12:50:11.008Z,12.00
2019-03-02T12:53:24.640Z,12.60
2019-03-02T12:56:32.942Z,12.80
2019-03-02T12:59:40.497Z,13.10
2019-03-02T13:02:56.460Z,13.70
2019-03-02T13:06:06.014Z,14.10
2019-03-02T13:09:03.307Z,14.10
2019-03-02T13:12:12.331Z,13.50
2019-03-02T13:15:28.196Z,12.70
2019-03-02T13:18:25.451Z,11.80
2019-03-02T13:21:35.251Z,11.60
2019-03-02T13:24:47.399Z,11.20
2019-03-02T13:27:56.761Z,11.40
2019-03-02T13:31:03.438Z,11.40
2019-03-02T13:34:08.175Z,11.80
2019-03-02T13:37:20.238Z,12.10
2019-03-02T13:40:26.330Z,12.30
2019-03-02T13:43:30.050Z,12.60
2019-03-02T13:46:39.981Z,12.10
2019-03-02T13:49:45.443Z,12.10
2019-03-02T13:52:51.843Z,12.30
2019-03-02T13:55:45.875Z,12.70
2019-03-02T13:58:42.900Z,12.70
2019-03-02T14:01:52.758Z,12.80
2019-03-02T14:05:05.035Z,12.70
2019-03-02T14:08:10.698Z,12.20
2019-03-02T14:11:16.129Z,12.20
2019-03-02T14:14:21.469Z,12.10
2019-03-02T14:17:37.032Z,11.90
2019-03-02T14:20:31.874Z,11.60
2019-03-02T14:23:38.785Z,11.50
2019-03-02T14:26:44.009Z,11.60
2019-03-02T14:29:43.007Z,11.60
2019-03-02T14:32:40.727Z,11.50
2019-03-02T14:35:43.906Z,11.50
2019-03-02T14:38:40.737Z,11.60
2019-03-02T14:41:37.947Z,11.60
2019-03-02T14:44:44.810Z,11.60
2019-03-02T14:48:09.290Z,11.80
2019-03-02T14:51:22.097Z,11.80
2019-03-02T14:54:31.868Z,11.90
2019-03-02T14:57:37.010Z,12.10
2019-03-02T15:00:41.142Z,11.60
2019-03-02T15:03:46.350Z,11.30
2019-03-02T15:06:58.869Z,11.10
2019-03-02T15:10:03.534Z,11.10
2019-03-02T15:13:19.146Z,11.10
2019-03-02T15:16:19.645Z,11.10
2019-03-02T15:19:18.017Z,11.00
2019-03-02T15:22:13.842Z,10.90
2019-03-02T15:25:09.974Z,11.00
2019-03-02T15:28:12.925Z,10.90
2019-03-02T15:31:22.858Z,10.90
2019-03-02T15:34:17.059Z,10.90
2019-03-02T15:37:24.258Z,10.80
2019-03-02T15:40:18.590Z,10.80
2019-03-02T15:43:25.066Z,10.80
2019-03-02T15:46:32.369Z,10.90
2019-03-02T15:49:27.901Z,10.90
2019-03-02T15:52:27.509Z,10.90
2019-03-02T15:55:26.683Z,10.80
2019-03-02T15:58:39.622Z,10.80
2019-03-02T16:01:46.227Z,10.80
2019-03-02T16:04:48.808Z,10.90
2019-03-02T16:07:45.835Z,11.00
2019-03-02T16:10:51.429Z,11.00
2019-03-02T16:14:01.034Z,10.90
2019-03-02T16:17:06.312Z,11.00
2019-03-02T16:20:18.814Z,10.90
2019-03-02T16:23:11.981Z,10.90
2019-03-02T16:26:24.478Z,10.80
2019-03-02T16:29:23.904Z,10.60
2019-03-02T16:32:36.565Z,10.50
2019-03-02T16:35:49.294Z,10.50
2019-03-02T16:38:54.161Z,10.50
2019-03-02T16:41:51.914Z,10.40
2019-03-02T16:45:04.759Z,10.40
2019-03-02T16:48:29.687Z,10.40
2019-03-02T16:51:34.915Z,10.30
2019-03-02T16:54:42.970Z,10.30
2019-03-02T16:57:45.970Z,10.40
2019-03-02T17:00:48.445Z,10.40
2019-03-02T17:03:49.644Z,10.40
2019-03-02T17:06:53.178Z,10.30
2019-03-02T17:10:03.021Z,10.30
2019-03-02T17:13:18.542Z,10.20
2019-03-02T17:16:13.012Z,10.20
2019-03-02T17:19:18.931Z,10.20
2019-03-02T17:22:28.871Z,10.10
2019-03-02T17:25:36.605Z,10.10
2019-03-02T17:28:39.059Z,10.10
2019-03-02T17:31:32.125Z,10.10
2019-03-02T17:34:45.096Z,10.00
2019-03-02T17:38:08.101Z,10.00
2019-03-02T17:41:15.005Z,10.00
2019-03-02T17:44:26.730Z,9.90
2019-03-02T17:47:26.675Z,10.00
2019-03-02T17:50:33.108Z,9.90
2019-03-02T17:53:38.108Z,9.90
2019-03-02T17:56:41.191Z,9.90
2019-03-02T17:59:48.908Z,9.90
2019-03-02T18:02:52.196Z,9.80
2019-03-02T18:05:57.325Z,9.80
2019-03-02T18:08:55.890Z,9.80
2019-03-02T18:12:00.055Z,9.80
2019-03-02T18:15:03.837Z,9.80
2019-03-02T18:18:04.166Z,9.90
2019-03-02T18:20:52.899Z,9.80
2019-03-02T18:23:41.355Z,9.90
2019-03-02T18:26:28.798Z,9.80
2019-03-02T18:29:16.021Z,9.80
2019-03-02T18:32:04.244Z,9.90
2019-03-02T18:34:51.854Z,9.80
2019-03-02T18:37:39.595Z,9.80
2019-03-02T18:40:27.345Z,9.80
2019-03-02T18:43:14.605Z,9.80
2019-03-02T18:46:01.987Z,9.80
2019-03-02T18:48:58.782Z,9.80
2019-03-02T18:52:05.305Z,9.70
2019-03-02T18:54:52.960Z,9.80
2019-03-02T18:57:40.319Z,9.80
2019-03-02T19:00:31.011Z,9.70
2019-03-02T19:03:21.077Z,9.70
2019-03-02T19:06:07.573Z,9.70
2019-03-02T19:08:54.960Z,9.70
2019-03-02T19:11:42.560Z,9.60
2019-03-02T19:14:30.384Z,9.60
2019-03-02T19:17:17.989Z,9.50
2019-03-02T19:20:05.944Z,9.50
2019-03-02T19:22:53.911Z,9.50
2019-03-02T19:25:41.352Z,9.50
2019-03-02T19:28:28.771Z,9.50
2019-03-02T19:31:16.393Z,9.50
2019-03-02T19:34:04.425Z,9.40
2019-03-02T19:36:52.591Z,9.40
2019-03-02T19:39:39.959Z,9.40
2019-03-02T19:42:27.700Z,9.30
2019-03-02T19:45:15.403Z,9.40
2019-03-02T19:48:02.847Z,9.30
2019-03-02T19:50:49.983Z,9.30
2019-03-02T19:53:37.506Z,9.40
2019-03-02T19:56:25.126Z,9.30
2019-03-02T19:59:12.571Z,9.30
2019-03-02T20:02:00.324Z,9.40
2019-03-02T20:04:48.357Z,9.30
2019-03-02T20:07:36.349Z,9.30
2019-03-02T20:10:24.186Z,9.40
2019-03-02T20:13:11.570Z,9.30
2019-03-02T20:15:59.224Z,9.40
2019-03-02T20:18:46.914Z,9.30
2019-03-02T20:21:34.779Z,9.30
2019-03-02T20:24:22.475Z,9.30
2019-03-02T20:27:09.830Z,9.20
2019-03-02T20:29:57.371Z,9.20
2019-03-02T20:32:45.826Z,9.30
2019-03-02T20:35:35.495Z,9.20
2019-03-02T20:38:22.306Z,9.10
2019-03-02T20:41:09.691Z,9.10
2019-03-02T20:43:57.011Z,9.10
2019-03-02T20:46:45.141Z,9.10
2019-03-02T20:49:32.975Z,9.00
2019-03-02T20:52:20.468Z,9.00
2019-03-02T20:55:08.717Z,8.90
2019-03-02T20:57:56.754Z,8.90
2019-03-02T21:00:44.397Z,8.90
2019-03-02T21:03:31.825Z,8.90
2019-03-02T21:06:19.154Z,8.90
2019-03-02T21:09:07.237Z,8.80
2019-03-02T21:11:54.753Z,8.90
2019-03-02T21:14:42.258Z,8.80
2019-03-02T21:17:29.532Z,8.80
2019-03-02T21:20:19.157Z,8.80
2019-03-02T21:23:06.678Z,8.80
2019-03-02T21:25:54.057Z,8.80
2019-03-02T21:28:41.443Z,8.70
2019-03-02T21:31:29.069Z,8.70
2019-03-02T21:34:17.079Z,8.70
2019-03-02T21:37:04.344Z,8.70
2019-03-02T21:39:51.525Z,8.70
2019-03-02T21:42:38.587Z,8.70
2019-03-02T21:45:25.804Z,8.70
2019-03-02T21:48:12.981Z,8.80
2019-03-02T21:51:00.513Z,8.70
2019-03-02T21:53:48.345Z,8.70
2019-03-02T21:56:36.244Z,8.70
2019-03-02T21:59:23.983Z,8.70
2019-03-02T22:02:11.283Z,8.70
2019-03-02T22:04:59.213Z,8.60
2019-03-02T22:07:46.774Z,8.70
2019-03-02T22:10:40.831Z,8.60
2019-03-02T22:13:28.504Z,8.60
2019-03-02T22:16:16.104Z,8.60
2019-03-02T22:19:03.397Z,8.60
2019-03-02T22:21:51.228Z,8.70
2019-03-02T22:24:39.038Z,8.60
2019-03-02T22:27:26.311Z,8.60
2019-03-02T22:30:15.939Z,8.70
2019-03-02T22:33:03.740Z,8.70
2019-03-02T22:35:51.348Z,8.80
2019-03-02T22:38:39.253Z,8.70
2019-03-02T22:41:26.662Z,8.70
2019-03-02T22:44:14.167Z,8.70
2019-03-02T22:47:01.805Z,8.70
2019-03-02T22:49:49.081Z,8.80
2019-03-02T22:52:36.445Z,8.80
2019-03-02T22:55:24.078Z,8.80
2019-03-02T22:58:11.642Z,8.80
2019-03-02T23:01:31.363Z,8.80
2019-03-02T23:04:18.974Z,8.80
2019-03-02T23:07:06.331Z,8.80
2019-03-02T23:09:53.706Z,8.80
2019-03-02T23:12:41.146Z,8.80
2019-03-02T23:15:28.772Z,8.80
2019-03-02T23:18:16.481Z,8.70
2019-03-02T23:21:03.870Z,8.70
2019-03-02T23:23:51.403Z,8.60
2019-03-02T23:26:39.607Z,8.60
2019-03-02T23:29:26.665Z,8.70
2019-03-02T23:32:14.316Z,8.70
2019-03-02T23:35:02.396Z,8.70
2019-03-02T23:37:49.608Z,8.60
2019-03-02T23:40:37.163Z,8.50
2019-03-02T23:43:24.848Z,8.60
2019-03-02T23:46:12.781Z,8.60
2019-03-02T23:49:00.596Z,8.60
2019-03-02T23:51:48.213Z,8.60
2019-03-02T23:54:35.450Z,8.60
2019-03-02T23:57:23.118Z,8.60
